Time;durP1;ratioP1;P1;durP2;ratioP2;P2;SDS_P1;SDS_P2;PMS_P1;PMS_P2;Temp;Humidity;BMP_temperature;BMP_pressure;BME280_temperature;BME280_humidity;BME280_pressure;Samples;Min_cycle;Max_cycle;Signal;HPM_P1;HPM_P2
2019/11/20 00:00:43;;;;;;;56.2;42.1;;;;;;;6.66;78.90137;936.4698;;;;
2019/11/20 00:03:16;;;;;;;54;42.1;;;;;;;6.61;79.25488;936.4917;;;;
2019/11/20 00:05:47;;;;;;;60;43.7;;;;;;;6.54;79.6377;936.4719;;;;
2019/11/20 00:08:16;;;;;;;56.7;44.6;;;;;;;6.56;79.36914;936.5062;;;;
2019/11/20 00:10:49;;;;;;;57;44.3;;;;;;;6.55;79.2998;936.4372;;;;
2019/11/20 00:13:19;;;;;;;55.9;44.4;;;;;;;6.55;79.43555;936.3912;;;;
2019/11/20 00:15:48;;;;;;;56.4;45.1;;;;;;;6.52;79.7793;936.4041;;;;
2019/11/20 00:18:18;;;;;;;59.2;44.9;;;;;;;6.56;79.42578;936.4327;;;;
2019/11/20 00:20:55;;;;;;;59.1;44.7;;;;;;;6.55;79.53711;936.4064;;;;
2019/11/20 00:23:24;;;;;;;61.7;47.1;;;;;;;6.53;80.02051;936.4264;;;;
2019/11/20 00:26:09;;;;;;;56.5;44.6;;;;;;;6.53;79.96387;936.4313;;;;
2019/11/20 00:28:33;;;;;;;58.4;44.8;;;;;;;6.53;79.71484;936.4218;;;;
2019/11/20 00:31:07;;;;;;;59.5;44.2;;;;;;;6.61;79.5498;936.4387;;;;
2019/11/20 00:33:37;;;;;;;56.6;43.2;;;;;;;6.55;79.56055;936.4744;;;;
2019/11/20 00:36:42;;;;;;;57.9;42.7;;;;;;;6.49;80.03516;936.4644;;;;
2019/11/20 00:39:17;;;;;;;57;44;;;;;;;6.47;80.17676;936.5027;;;;
2019/11/20 00:41:51;;;;;;;58.5;44.2;;;;;;;6.49;80.07813;936.4572;;;;
2019/11/20 00:44:27;;;;;;;61.2;44.8;;;;;;;6.42;80.33984;936.4456;;;;
2019/11/20 00:46:53;;;;;;;53.4;42.9;;;;;;;6.34;80.88965;936.4886;;;;
2019/11/20 00:49:25;;;;;;;56.3;43.7;;;;;;;6.28;81.20605;936.574;;;;
2019/11/20 00:51:57;;;;;;;59.1;43.5;;;;;;;6.16;81.53418;936.5759;;;;
2019/11/20 00:54:22;;;;;;;54.9;43.7;;;;;;;6.11;81.9873;936.6197;;;;
2019/11/20 00:56:48;;;;;;;56.6;44.7;;;;;;;6.13;81.85449;936.6044;;;;
2019/11/20 00:59:17;;;;;;;55;43.1;;;;;;;6.21;81.45215;936.6302;;;;
2019/11/20 01:02:00;;;;;;;53.2;41.9;;;;;;;6.15;81.44141;936.635;;;;
2019/11/20 01:04:25;;;;;;;52.8;42.6;;;;;;;6.15;81.63379;936.5432;;;;
2019/11/20 01:06:57;;;;;;;57.3;43.9;;;;;;;6.15;81.61133;936.502;;;;
2019/11/20 01:09:40;;;;;;;51.7;41.8;;;;;;;6.2;81.41602;936.527;;;;
2019/11/20 01:12:04;;;;;;;52;41.4;;;;;;;6.27;81.13477;936.5192;;;;
2019/11/20 01:14:41;;;;;;;49.2;39.5;;;;;;;6.36;80.75781;936.5008;;;;
2019/11/20 01:17:07;;;;;;;57.5;42;;;;;;;6.33;80.86523;936.4867;;;;
2019/11/20 01:19:37;;;;;;;48.7;39.6;;;;;;;6.43;80.30762;936.4821;;;;
2019/11/20 01:22:02;;;;;;;49.8;39.1;;;;;;;6.49;79.93164;936.3844;;;;
2019/11/20 01:24:34;;;;;;;53;39.9;;;;;;;6.46;80.27832;936.3791;;;;
2019/11/20 01:27:02;;;;;;;47.9;39.4;;;;;;;6.41;80.25684;936.3938;;;;
2019/11/20 01:32:14;;;;;;;56.9;44;;;;;;;6.13;81.52734;936.3719;;;;
2019/11/20 01:34:39;;;;;;;54.4;42;;;;;;;6.19;81.49414;936.3837;;;;
2019/11/20 01:37:40;;;;;;;54.8;42.2;;;;;;;6.2;81.65332;936.3175;;;;
2019/11/20 01:40:09;;;;;;;46.9;39;;;;;;;6.29;80.97949;936.3727;;;;
2019/11/20 01:42:38;;;;;;;50.8;39.9;;;;;;;6.34;81.03711;936.2869;;;;
2019/11/20 01:45:17;;;;;;;51.2;39.8;;;;;;;6.43;80.74805;936.343;;;;
2019/11/20 01:47:42;;;;;;;48.6;39.9;;;;;;;6.49;80.56445;936.356;;;;
2019/11/20 01:50:15;;;;;;;49.3;39.5;;;;;;;6.5;80.47754;936.3324;;;;
2019/11/20 01:52:55;;;;;;;45.7;38.4;;;;;;;6.51;80.31152;936.3146;;;;
2019/11/20 01:55:28;;;;;;;50.4;39.6;;;;;;;6.47;79.86328;936.252;;;;
2019/11/20 01:57:53;;;;;;;48.8;39.1;;;;;;;6.47;80.07813;936.3011;;;;
2019/11/20 02:00:27;;;;;;;48.6;38.6;;;;;;;6.5;80.09473;936.2733;;;;
2019/11/20 02:03:31;;;;;;;48.8;38.2;;;;;;;6.48;80.12402;936.2523;;;;
2019/11/20 02:06:04;;;;;;;51.2;38.7;;;;;;;6.38;80.79492;936.2253;;;;
2019/11/20 02:10:18;;;;;;;48.2;39.9;;;;;;;6.42;80.64355;936.2477;;;;
2019/11/20 02:11:10;;;;;;;49.5;39.6;;;;;;;6.47;80.43848;936.2282;;;;
2019/11/20 02:13:38;;;;;;;48.5;39;;;;;;;6.4;80.67578;936.2186;;;;
2019/11/20 02:16:06;;;;;;;46.6;38.6;;;;;;;6.43;80.4541;936.2369;;;;
2019/11/20 02:18:40;;;;;;;50.7;38.6;;;;;;;6.47;80.19922;936.1721;;;;
2019/11/20 02:21:11;;;;;;;47.4;38;;;;;;;6.44;80.26367;936.1477;;;;
2019/11/20 02:23:41;;;;;;;45.9;38.8;;;;;;;6.5;80.00391;936.1775;;;;
2019/11/20 02:26:06;;;;;;;49.5;39.7;;;;;;;6.37;80.4668;936.2045;;;;
2019/11/20 02:28:39;;;;;;;46.8;38.6;;;;;;;6.43;79.88867;936.15;;;;
2019/11/20 02:31:08;;;;;;;51.5;40.6;;;;;;;6.48;79.80664;936.1042;;;;
2019/11/20 02:33:35;;;;;;;48.2;38.9;;;;;;;6.46;79.75879;936.0531;;;;
2019/11/20 02:36:14;;;;;;;48.8;39.7;;;;;;;6.28;80.36914;936.0373;;;;
2019/11/20 02:38:46;;;;;;;52.2;40.9;;;;;;;6.17;81.00391;936.0528;;;;
2019/11/20 02:41:20;;;;;;;53.9;42.1;;;;;;;6.07;81.58398;936.0086;;;;
2019/11/20 02:43:53;;;;;;;53.8;41.7;;;;;;;6.08;81.57324;936.0002;;;;
2019/11/20 02:46:26;;;;;;;52.1;41.4;;;;;;;6.02;81.7793;935.9633;;;;
2019/11/20 02:49:00;;;;;;;54.8;43.2;;;;;;;5.96;82.18359;936.009;;;;
2019/11/20 02:51:29;;;;;;;55;43.2;;;;;;;5.93;82.42676;936.0248;;;;
2019/11/20 02:53:58;;;;;;;53.9;41.7;;;;;;;5.97;82.38867;936.0754;;;;
2019/11/20 02:56:29;;;;;;;53.8;42.8;;;;;;;5.9;82.7373;936.0219;;;;
2019/11/20 02:59:04;;;;;;;53.6;42.3;;;;;;;5.95;82.51074;936.0769;;;;
2019/11/20 03:01:36;;;;;;;51.4;41;;;;;;;5.93;82.58496;936.0503;;;;
2019/11/20 03:04:07;;;;;;;57.3;43.3;;;;;;;5.92;82.60547;936.0832;;;;
2019/11/20 03:06:43;;;;;;;55.3;41.9;;;;;;;6.05;82.31543;936.0928;;;;
2019/11/20 03:09:12;;;;;;;51.9;40.7;;;;;;;6.12;81.92285;936.1078;;;;
2019/11/20 03:11:44;;;;;;;57.7;41.7;;;;;;;6.25;81.3584;936.1;;;;
2019/11/20 03:14:09;;;;;;;56.2;41.8;;;;;;;6.06;81.6709;936.1253;;;;
2019/11/20 03:16:34;;;;;;;56.8;43.1;;;;;;;5.98;81.88184;936.113;;;;
2019/11/20 03:19:45;;;;;;;53;41.1;;;;;;;5.97;81.41699;936.1292;;;;
2019/11/20 03:22:26;;;;;;;52.4;41.8;;;;;;;5.61;82.82715;936.1351;;;;
2019/11/20 03:24:52;;;;;;;57.4;42.9;;;;;;;5.37;84.01074;936.1217;;;;
2019/11/20 03:27:42;;;;;;;58.1;43.7;;;;;;;5.6;83.2666;936.0779;;;;
2019/11/20 03:30:09;;;;;;;54.9;43.3;;;;;;;5.58;83.3877;936.0948;;;;
2019/11/20 03:32:40;;;;;;;53.2;42;;;;;;;5.64;82.7207;936.0886;;;;
2019/11/20 03:35:11;;;;;;;55.1;42.8;;;;;;;5.71;82.63379;936.0405;;;;
2019/11/20 03:37:37;;;;;;;52.2;41.8;;;;;;;5.7;83.01367;936.079;;;;
2019/11/20 03:40:07;;;;;;;51.4;41.4;;;;;;;5.58;82.78906;936.0687;;;;
2019/11/20 03:42:41;;;;;;;51.6;40.4;;;;;;;5.75;82.21094;936.0817;;;;
2019/11/20 03:45:20;;;;;;;49.9;40.6;;;;;;;5.85;81.86914;936.0527;;;;
2019/11/20 03:47:49;;;;;;;45.4;37.9;;;;;;;5.89;81.24316;936.0773;;;;
2019/11/20 03:50:24;;;;;;;47.5;38.2;;;;;;;5.87;81.46777;936.0122;;;;
2019/11/20 03:53:02;;;;;;;45.1;36.5;;;;;;;5.84;81.14453;936.1362;;;;
2019/11/20 03:55:29;;;;;;;44.5;36.2;;;;;;;5.79;81.29395;935.9864;;;;
2019/11/20 03:58:03;;;;;;;44.2;36.1;;;;;;;5.82;81.18652;936.0947;;;;
2019/11/20 04:02:35;;;;;;;42.1;34.7;;;;;;;5.89;80.39746;936.0656;;;;
2019/11/20 04:05:03;;;;;;;39.8;32.7;;;;;;;5.89;80.01367;935.9653;;;;
2019/11/20 04:07:33;;;;;;;41.7;33.7;;;;;;;5.76;80.61133;935.9802;;;;
2019/11/20 04:10:10;;;;;;;41.6;34.7;;;;;;;5.78;80.6582;935.9481;;;;
2019/11/20 04:19:17;;;;;;;41.1;34.5;;;;;;;5.74;80.58496;935.9031;;;;
2019/11/20 04:21:35;;;;;;;38.5;32.2;;;;;;;5.72;80.36523;936.0148;;;;
2019/11/20 04:24:05;;;;;;;41.8;33.9;;;;;;;5.63;81.0498;936.0024;;;;
2019/11/20 04:26:40;;;;;;;41.9;34.5;;;;;;;5.76;80.67871;936.0427;;;;
2019/11/20 04:29:04;;;;;;;39;33.4;;;;;;;5.9;79.79004;936.0937;;;;
2019/11/20 04:31:35;;;;;;;42.7;33.9;;;;;;;5.84;79.72266;936.1142;;;;
2019/11/20 04:34:03;;;;;;;40.7;33.4;;;;;;;5.76;80.53223;936.0717;;;;
2019/11/20 04:36:32;;;;;;;41.8;33.5;;;;;;;5.71;80.55371;936.0831;;;;
2019/11/20 04:39:05;;;;;;;38.7;32.2;;;;;;;5.73;80.48242;936.0687;;;;
2019/11/20 04:41:38;;;;;;;40.4;32.4;;;;;;;5.65;80.4873;936.1442;;;;
2019/11/20 04:44:10;;;;;;;41.8;33.1;;;;;;;5.75;80.41602;935.9861;;;;
2019/11/20 04:46:39;;;;;;;40.8;33.1;;;;;;;5.75;80.1123;936.0359;;;;
2019/11/20 04:49:05;;;;;;;40.4;32.4;;;;;;;5.83;79.98926;936.0491;;;;
2019/11/20 04:51:38;;;;;;;39.9;33.5;;;;;;;5.72;80.01563;936.0305;;;;
2019/11/20 04:54:09;;;;;;;42.8;33.9;;;;;;;5.71;80.66895;936.0327;;;;
2019/11/20 04:56:34;;;;;;;37.7;32;;;;;;;5.77;80.19336;936.053;;;;
2019/11/20 04:58:58;;;;;;;40.9;33.5;;;;;;;5.71;80.38672;935.9924;;;;
2019/11/20 05:01:29;;;;;;;42.4;34.4;;;;;;;5.61;80.79883;935.9008;;;;
2019/11/20 05:03:54;;;;;;;40;33.4;;;;;;;5.48;81.58496;935.9645;;;;
2019/11/20 05:06:26;;;;;;;42.3;34.3;;;;;;;5.63;81.05957;935.9445;;;;
2019/11/20 05:08:54;;;;;;;41.4;33.8;;;;;;;5.55;80.83008;935.8785;;;;
2019/11/20 05:11:19;;;;;;;43.3;35.2;;;;;;;5.44;81.14844;935.894;;;;
2019/11/20 05:13:53;;;;;;;43.2;35.4;;;;;;;5.47;81.4707;935.868;;;;
2019/11/20 05:16:31;;;;;;;42.5;34.5;;;;;;;5.46;81.5459;935.7302;;;;
2019/11/20 05:19:01;;;;;;;43.4;35.5;;;;;;;5.56;81.47656;935.803;;;;
2019/11/20 05:21:31;;;;;;;47.8;35.5;;;;;;;5.68;80.97949;935.7453;;;;
2019/11/20 05:24:05;;;;;;;44.8;35.1;;;;;;;5.76;80.37402;935.7827;;;;
2019/11/20 05:26:35;;;;;;;43.3;34.6;;;;;;;5.62;80.84375;935.7226;;;;
2019/11/20 05:29:21;;;;;;;44.6;35.3;;;;;;;5.68;80.55078;935.6828;;;;
2019/11/20 05:32:06;;;;;;;44.5;35.9;;;;;;;5.66;80.7041;935.6705;;;;
2019/11/20 05:34:37;;;;;;;43.1;35.8;;;;;;;5.7;80.33789;935.635;;;;
2019/11/20 05:37:07;;;;;;;42.6;34.9;;;;;;;5.81;79.97559;935.577;;;;
2019/11/20 05:39:40;;;;;;;45.1;35.4;;;;;;;5.81;79.70508;935.6544;;;;
2019/11/20 05:42:06;;;;;;;45;35.2;;;;;;;5.8;79.84863;935.6342;;;;
2019/11/20 05:44:40;;;;;;;42;34.2;;;;;;;5.85;79.48633;935.623;;;;
2019/11/20 05:47:15;;;;;;;45.9;36.7;;;;;;;5.75;79.83008;935.63;;;;
2019/11/20 05:49:48;;;;;;;45.4;35.9;;;;;;;5.82;79.63867;935.6541;;;;
2019/11/20 05:52:13;;;;;;;46.1;36.8;;;;;;;5.88;79.48145;935.5889;;;;
2019/11/20 05:54:39;;;;;;;44.8;35.9;;;;;;;5.93;79.25293;935.5413;;;;
2019/11/20 05:57:06;;;;;;;45.1;36;;;;;;;5.92;79.25098;935.493;;;;
2019/11/20 05:59:33;;;;;;;42.9;34.9;;;;;;;5.97;79.00098;935.4664;;;;
2019/11/20 06:02:02;;;;;;;44.5;36.3;;;;;;;5.96;79.07715;935.4685;;;;
2019/11/20 06:04:32;;;;;;;44.6;35.4;;;;;;;6.02;78.90723;935.3761;;;;
2019/11/20 06:07:10;;;;;;;45.5;36.4;;;;;;;6.04;78.94531;935.4199;;;;
2019/11/20 06:09:41;;;;;;;44.6;36.9;;;;;;;6.03;78.89941;935.4395;;;;
2019/11/20 06:12:07;;;;;;;43.1;35.5;;;;;;;5.97;78.83203;935.4158;;;;
2019/11/20 06:14:32;;;;;;;45.6;36.9;;;;;;;6.06;78.76758;935.4102;;;;
2019/11/20 06:17:04;;;;;;;44.8;35.5;;;;;;;6.05;78.22363;935.3315;;;;
2019/11/20 06:19:31;;;;;;;46.1;37.2;;;;;;;6.03;78.21973;935.2182;;;;
2019/11/20 06:22:46;;;;;;;49.5;38.8;;;;;;;5.93;79.06055;935.2551;;;;
2019/11/20 06:25:31;;;;;;;45.4;36;;;;;;;5.95;79.21191;935.1934;;;;
2019/11/20 06:28:05;;;;;;;46;36.1;;;;;;;5.97;79.30566;935.2687;;;;
2019/11/20 06:30:40;;;;;;;45.6;35.7;;;;;;;6.05;78.82227;935.2036;;;;
2019/11/20 06:33:03;;;;;;;47.9;38.1;;;;;;;6.06;78.87109;935.1517;;;;
2019/11/20 06:35:30;;;;;;;48.6;37.5;;;;;;;6.05;78.94629;935.1807;;;;
2019/11/20 06:38:05;;;;;;;48.9;36.8;;;;;;;6.14;78.45508;935.128;;;;
2019/11/20 06:40:49;;;;;;;45.7;36;;;;;;;6.21;77.63184;934.9978;;;;
2019/11/20 06:43:12;;;;;;;45.2;36.8;;;;;;;6.05;78.44922;935.1278;;;;
2019/11/20 06:45:45;;;;;;;46.5;36.3;;;;;;;6.04;79.08008;935.1362;;;;
2019/11/20 06:48:28;;;;;;;43.8;35.1;;;;;;;6.1;78.80957;935.1447;;;;
2019/11/20 06:50:53;;;;;;;46.4;37.1;;;;;;;6.05;79.05957;935.191;;;;
2019/11/20 06:53:21;;;;;;;45.4;36.3;;;;;;;6.13;78.69043;935.1547;;;;
2019/11/20 06:55:52;;;;;;;45.6;35.9;;;;;;;6.17;79.02441;935.2827;;;;
2019/11/20 06:58:24;;;;;;;44.2;36.1;;;;;;;6.19;78.62305;935.3251;;;;
2019/11/20 07:00:50;;;;;;;46;36.5;;;;;;;6.24;78.34863;935.3462;;;;
2019/11/20 07:03:13;;;;;;;44.5;36.4;;;;;;;6.14;78.66895;935.32;;;;
2019/11/20 07:05:42;;;;;;;51.6;36.9;;;;;;;6.01;79.27734;935.3098;;;;
2019/11/20 07:08:08;;;;;;;47.6;37.1;;;;;;;6.04;79.38574;935.2327;;;;
2019/11/20 07:10:43;;;;;;;46.5;37.5;;;;;;;6.12;79.15234;935.3458;;;;
2019/11/20 07:13:16;;;;;;;43.6;35.7;;;;;;;6.18;79.18652;935.3961;;;;
2019/11/20 07:15:47;;;;;;;44.4;36.3;;;;;;;6.3;79.02734;935.3553;;;;
2019/11/20 07:18:20;;;;;;;47.1;36.1;;;;;;;6.34;78.81934;935.3688;;;;
2019/11/20 07:20:55;;;;;;;47.4;35.6;;;;;;;6.41;78.49316;935.4219;;;;
2019/11/20 07:23:27;;;;;;;43.6;35.6;;;;;;;6.43;78.48633;935.3393;;;;
2019/11/20 07:26:00;;;;;;;45.6;35.2;;;;;;;6.47;78.13086;935.3228;;;;
2019/11/20 07:28:33;;;;;;;46.8;34.3;;;;;;;6.53;77.62207;935.3413;;;;
2019/11/20 07:30:57;;;;;;;46.7;36.8;;;;;;;6.5;78.24902;935.3272;;;;
2019/11/20 07:33:28;;;;;;;44.6;35.2;;;;;;;6.51;77.86621;935.3211;;;;
2019/11/20 07:36:08;;;;;;;44;35;;;;;;;6.52;77.35938;935.2581;;;;
2019/11/20 07:40:52;;;;;;;48.5;35.1;;;;;;;6.67;76.91309;935.3206;;;;
2019/11/20 07:43:25;;;;;;;45.5;35.2;;;;;;;6.65;76.70508;935.3115;;;;
2019/11/20 07:45:50;;;;;;;48.4;37.3;;;;;;;6.65;77.37207;935.2853;;;;
2019/11/20 07:48:21;;;;;;;46.8;35.6;;;;;;;6.76;76.49805;935.2661;;;;
2019/11/20 07:51:17;;;;;;;45.5;34.4;;;;;;;6.87;75.89453;935.2383;;;;
2019/11/20 07:53:52;;;;;;;46.6;34.2;;;;;;;6.92;75.30273;935.1845;;;;
2019/11/20 07:56:24;;;;;;;43.2;33.9;;;;;;;6.96;75.16309;935.1639;;;;
2019/11/20 07:58:58;;;;;;;42.9;34.5;;;;;;;6.94;75.375;935.1691;;;;
2019/11/20 08:01:39;;;;;;;44.9;33.6;;;;;;;7.02;75.53613;935.1351;;;;
2019/11/20 08:04:12;;;;;;;43.9;33.2;;;;;;;7.11;74.89551;935.056;;;;
2019/11/20 08:06:38;;;;;;;42.8;34.1;;;;;;;7.12;75.14648;935.1536;;;;
2019/11/20 08:09:17;;;;;;;43.9;33.2;;;;;;;7.15;74.4375;935.0923;;;;
2019/11/20 08:11:47;;;;;;;44.1;32.8;;;;;;;7.17;74.44238;935.1205;;;;
2019/11/20 08:14:14;;;;;;;40.9;31.9;;;;;;;7.04;75.0752;935.1133;;;;
2019/11/20 08:16:34;;;;;;;45.6;33.8;;;;;;;6.91;76.02734;935.0895;;;;
2019/11/20 08:19:04;;;;;;;42.6;32.9;;;;;;;7.04;75.45996;935.0975;;;;
2019/11/20 08:21:31;;;;;;;39.5;32.9;;;;;;;7.03;75.79883;935.0491;;;;
2019/11/20 08:24:04;;;;;;;44.6;34.2;;;;;;;7.08;75.39844;935.0144;;;;
2019/11/20 08:26:31;;;;;;;43.1;34;;;;;;;7.12;75.19141;935.0301;;;;
2019/11/20 08:28:59;;;;;;;43.1;33.9;;;;;;;7.15;74.85645;935.0598;;;;
2019/11/20 08:31:32;;;;;;;43;32.8;;;;;;;7.2;74.80762;935.0994;;;;
2019/11/20 08:34:03;;;;;;;42.3;33.3;;;;;;;7.23;74.74609;935.0828;;;;
2019/11/20 08:36:32;;;;;;;45.3;34.2;;;;;;;7.29;74.8252;935.026;;;;
2019/11/20 08:39:01;;;;;;;42.4;32.9;;;;;;;7.35;74.22266;935.0634;;;;
2019/11/20 08:41:33;;;;;;;41.5;33.1;;;;;;;7.3;74.56543;935.0198;;;;
2019/11/20 08:44:05;;;;;;;42.9;33.5;;;;;;;7.33;74.23047;934.9372;;;;
2019/11/20 08:46:39;;;;;;;41.3;33.8;;;;;;;7.12;74.84082;934.9122;;;;
2019/11/20 08:49:06;;;;;;;45.9;33.7;;;;;;;6.97;76.10449;934.9164;;;;
2019/11/20 08:51:47;;;;;;;44.6;34;;;;;;;7.03;75.74023;934.8495;;;;
2019/11/20 08:54:19;;;;;;;44.6;34.1;;;;;;;7.16;76.11719;934.855;;;;
2019/11/20 08:56:55;;;;;;;44.8;32.4;;;;;;;7.26;75.32813;934.9171;;;;
2019/11/20 08:59:20;;;;;;;38.6;32.2;;;;;;;7.25;75.03223;934.9122;;;;
2019/11/20 09:01:48;;;;;;;41.8;32.6;;;;;;;7.3;74.98535;934.9178;;;;
2019/11/20 09:04:18;;;;;;;41.5;32.6;;;;;;;7.35;74.78906;934.9217;;;;
2019/11/20 09:07:16;;;;;;;43.4;32.8;;;;;;;7.4;74.48145;934.9597;;;;
2019/11/20 09:09:49;;;;;;;46.1;33;;;;;;;7.55;74.02051;935.0051;;;;
2019/11/20 09:12:29;;;;;;;39.6;32.4;;;;;;;7.58;73.58301;934.9827;;;;
2019/11/20 09:14:53;;;;;;;44.1;33.3;;;;;;;7.57;74.14648;934.9261;;;;
2019/11/20 09:17:24;;;;;;;41.5;34.1;;;;;;;7.39;74.43555;934.9866;;;;
2019/11/20 09:19:58;;;;;;;44.2;33.7;;;;;;;7.25;74.93066;934.9913;;;;
2019/11/20 09:22:22;;;;;;;43.4;33.3;;;;;;;7.37;74.40723;935.093;;;;
2019/11/20 09:25:01;;;;;;;42.9;33.5;;;;;;;7.48;74.43652;935.0452;;;;
2019/11/20 09:27:35;;;;;;;42.7;32;;;;;;;7.59;73.7998;935.0406;;;;
2019/11/20 09:30:02;;;;;;;39;31.2;;;;;;;7.72;73.50391;935.084;;;;
2019/11/20 09:32:41;;;;;;;41.6;32.4;;;;;;;7.78;73.54883;935.1055;;;;
2019/11/20 09:35:04;;;;;;;40.4;31.7;;;;;;;7.85;72.93848;935.0522;;;;
2019/11/20 09:37:39;;;;;;;38.1;31.1;;;;;;;7.9;72.69531;935.0647;;;;
2019/11/20 09:40:10;;;;;;;41;31.2;;;;;;;8.02;72.21484;935.0477;;;;
2019/11/20 09:42:53;;;;;;;37.5;29.9;;;;;;;8.05;71.5625;934.9551;;;;
2019/11/20 09:45:08;;;;;;;36.8;30.8;;;;;;;8.1;71.91113;934.9543;;;;
2019/11/20 09:47:44;;;;;;;40.8;32.3;;;;;;;8.16;72.08203;934.9813;;;;
2019/11/20 09:50:11;;;;;;;40.7;31.4;;;;;;;8.23;71.13867;934.9872;;;;
2019/11/20 09:52:42;;;;;;;35.2;29.3;;;;;;;8.27;70.92871;934.9663;;;;
2019/11/20 09:55:16;;;;;;;39.5;30.4;;;;;;;8.37;70.44531;934.9235;;;;
2019/11/20 09:57:50;;;;;;;39.7;31.6;;;;;;;8.32;70.82422;934.8923;;;;
2019/11/20 10:00:11;;;;;;;36.1;28.8;;;;;;;8.43;70.125;934.7999;;;;
2019/11/20 10:02:44;;;;;;;36;27.9;;;;;;;8.46;69.64355;934.8605;;;;
2019/11/20 10:05:16;;;;;;;37.2;27.5;;;;;;;8.37;70.07031;934.7966;;;;
2019/11/20 10:07:39;;;;;;;36;27.7;;;;;;;8.5;69.25195;934.7261;;;;
2019/11/20 10:10:05;;;;;;;37.1;27.1;;;;;;;8.63;69.29492;934.6842;;;;
2019/11/20 10:12:36;;;;;;;30.5;25.6;;;;;;;8.59;69.26465;934.6422;;;;
2019/11/20 10:15:07;;;;;;;34.7;27.4;;;;;;;8.63;69.36328;934.5644;;;;
2019/11/20 10:17:44;;;;;;;34;26.5;;;;;;;8.68;69.7002;934.5458;;;;
2019/11/20 10:20:17;;;;;;;35.7;25.7;;;;;;;8.69;68.27051;934.5539;;;;
2019/11/20 10:22:44;;;;;;;24.6;19.4;;;;;;;8.63;68.20215;934.4508;;;;
2019/11/20 10:25:09;;;;;;;21.2;17.1;;;;;;;8.73;67.82129;934.5027;;;;
2019/11/20 10:27:40;;;;;;;21.2;15;;;;;;;8.67;66.91504;934.4473;;;;
2019/11/20 10:30:13;;;;;;;19.6;14.5;;;;;;;8.6;68.64258;934.3836;;;;
2019/11/20 10:35:10;;;;;;;19;12.4;;;;;;;8.21;67.85352;934.2756;;;;
2019/11/20 10:37:33;;;;;;;28;20.5;;;;;;;8.38;68.99316;934.3342;;;;
2019/11/20 10:40:10;;;;;;;26;20.3;;;;;;;8.64;68.99023;934.2708;;;;
2019/11/20 10:42:30;;;;;;;29.4;20;;;;;;;8.77;68.89551;934.2791;;;;
2019/11/20 10:44:58;;;;;;;17.4;14;;;;;;;8.77;67.37305;934.1911;;;;
2019/11/20 10:47:26;;;;;;;15.7;12.4;;;;;;;8.82;65.8584;934.2395;;;;
2019/11/20 10:49:56;;;;;;;28.2;13.5;;;;;;;8.88;67.08301;934.2059;;;;
2019/11/20 10:52:23;;;;;;;18.2;12.9;;;;;;;8.67;67.09668;934.1806;;;;
2019/11/20 10:54:57;;;;;;;20.6;14;;;;;;;8.33;67.89355;934.1516;;;;
2019/11/20 10:57:27;;;;;;;31.8;16.7;;;;;;;8.42;67.51172;934.0596;;;;
2019/11/20 10:59:50;;;;;;;21.7;14.8;;;;;;;8.56;67.87402;934.0332;;;;
2019/11/20 11:02:20;;;;;;;15.1;12.7;;;;;;;8.69;66.75781;934.0158;;;;
2019/11/20 11:04:47;;;;;;;18.5;13.7;;;;;;;8.78;65.16895;933.9634;;;;
2019/11/20 11:07:24;;;;;;;18.9;13.3;;;;;;;8.28;66.55859;933.9433;;;;
2019/11/20 11:09:50;;;;;;;19.1;13.6;;;;;;;7.8;68.03906;933.9439;;;;
2019/11/20 11:12:19;;;;;;;19.9;14.3;;;;;;;7.92;69.71484;934.0059;;;;
2019/11/20 11:14:54;;;;;;;19.9;14.7;;;;;;;8.08;70.00098;933.9161;;;;
2019/11/20 11:17:17;;;;;;;20.2;15.7;;;;;;;8.32;69.38184;933.8937;;;;
2019/11/20 11:19:51;;;;;;;19.5;15.5;;;;;;;8.69;67.56543;933.8499;;;;
2019/11/20 11:22:19;;;;;;;18.7;13.2;;;;;;;8.66;65.83203;933.8606;;;;
2019/11/20 11:24:51;;;;;;;19.3;13.1;;;;;;;8.88;66.11621;933.82;;;;
2019/11/20 11:27:23;;;;;;;16.8;13.2;;;;;;;8.76;66.7002;933.7814;;;;
2019/11/20 11:29:56;;;;;;;17.3;12.6;;;;;;;9.05;65.57227;933.7558;;;;
2019/11/20 11:32:28;;;;;;;15.5;12.6;;;;;;;9.26;65.03613;933.7266;;;;
2019/11/20 11:35:02;;;;;;;15;12.1;;;;;;;9.49;64.69434;933.6649;;;;
2019/11/20 11:37:33;;;;;;;19.4;13.1;;;;;;;9.4;64.20313;933.7195;;;;
2019/11/20 11:40:08;;;;;;;14.4;12.4;;;;;;;9.47;64.15625;933.6504;;;;
2019/11/20 11:42:43;;;;;;;16.7;13.3;;;;;;;9.4;64.39648;933.683;;;;
2019/11/20 11:45:16;;;;;;;17;13.7;;;;;;;9.23;65.18066;933.6447;;;;
2019/11/20 11:47:46;;;;;;;17;13.7;;;;;;;9.25;64.9541;933.6105;;;;
2019/11/20 11:50:14;;;;;;;17.9;13;;;;;;;9.18;65.03516;933.5779;;;;
2019/11/20 11:52:41;;;;;;;17.3;13.2;;;;;;;9.08;65.54395;933.64;;;;
2019/11/20 11:55:12;;;;;;;18.5;13;;;;;;;9.06;65.2793;933.5867;;;;
2019/11/20 11:57:47;;;;;;;17.1;12.7;;;;;;;9.14;65.84766;933.5508;;;;
2019/11/20 12:00:18;;;;;;;15.2;12.7;;;;;;;9.22;65.63281;933.5357;;;;
2019/11/20 12:02:48;;;;;;;18.4;13.1;;;;;;;9.13;65.2334;933.5229;;;;
2019/11/20 12:05:16;;;;;;;19.6;15.6;;;;;;;8.98;67.56543;933.5033;;;;
2019/11/20 12:07:46;;;;;;;19.6;15.5;;;;;;;8.88;67.65234;933.4389;;;;
2019/11/20 12:10:18;;;;;;;19.2;15.5;;;;;;;8.69;68.05469;933.4213;;;;
2019/11/20 12:12:44;;;;;;;19.8;14.7;;;;;;;8.68;68.2334;933.3989;;;;
2019/11/20 12:15:22;;;;;;;17.9;14.3;;;;;;;8.36;69.68457;933.325;;;;
2019/11/20 12:17:50;;;;;;;19.2;15.1;;;;;;;8.46;69.40527;933.3111;;;;
2019/11/20 12:20:21;;;;;;;21.3;15.4;;;;;;;8.69;68.52051;933.2776;;;;
2019/11/20 12:22:54;;;;;;;21.4;15.1;;;;;;;8.73;67.99219;933.2874;;;;
2019/11/20 12:25:26;;;;;;;18.8;14.8;;;;;;;8.62;68.64551;933.2286;;;;
2019/11/20 12:27:51;;;;;;;18.8;15.7;;;;;;;8.56;68.70508;933.2198;;;;
2019/11/20 12:31:18;;;;;;;19.6;15.9;;;;;;;8.52;68.76563;933.1838;;;;
2019/11/20 12:33:51;;;;;;;18;14.7;;;;;;;8.69;67.64453;933.1102;;;;
2019/11/20 12:36:17;;;;;;;18.7;15.2;;;;;;;8.72;68.05957;933.1437;;;;
2019/11/20 12:38:49;;;;;;;19;15.7;;;;;;;8.38;69.10742;933.1721;;;;
2019/11/20 12:41:15;;;;;;;21.6;17;;;;;;;8.3;69.47949;933.163;;;;
2019/11/20 12:43:47;;;;;;;23.2;16.9;;;;;;;8.37;69.22949;933.2195;;;;
2019/11/20 12:46:15;;;;;;;20.8;17.2;;;;;;;8.12;70.51855;933.2054;;;;
2019/11/20 12:48:52;;;;;;;21.7;17;;;;;;;8.24;69.86816;933.1601;;;;
2019/11/20 12:51:14;;;;;;;20.1;16.5;;;;;;;8.19;69.65527;933.1529;;;;
2019/11/20 12:53:48;;;;;;;21.8;17.3;;;;;;;7.99;71.5752;933.1791;;;;
2019/11/20 12:56:23;;;;;;;19.5;16.3;;;;;;;8.11;70.9375;933.1577;;;;
2019/11/20 12:58:54;;;;;;;21.8;16.2;;;;;;;8.19;69.95215;933.1744;;;;
2019/11/20 13:01:28;;;;;;;20.6;16.3;;;;;;;8.09;70.18359;933.0972;;;;
2019/11/20 13:03:57;;;;;;;21.5;17.8;;;;;;;8.05;70.91602;933.1127;;;;
2019/11/20 13:06:27;;;;;;;19.8;16.5;;;;;;;7.68;71.9209;933.0723;;;;
2019/11/20 13:09:06;;;;;;;21.1;16.5;;;;;;;7.9;71.70801;933.0782;;;;
2019/11/20 13:11:40;;;;;;;20.2;16.2;;;;;;;8.06;71.66699;933.1001;;;;
2019/11/20 13:14:07;;;;;;;16.6;13.4;;;;;;;8.03;71.21777;933.0728;;;;
2019/11/20 13:16:34;;;;;;;17.3;14.1;;;;;;;8.01;71.63672;933.0266;;;;
2019/11/20 13:19:14;;;;;;;19;14.8;;;;;;;8.15;70.81836;933.0383;;;;
2019/11/20 13:21:46;;;;;;;24;17.1;;;;;;;8.09;70.62695;932.9504;;;;
2019/11/20 13:24:30;;;;;;;24.2;18.2;;;;;;;7.99;71.68848;932.9698;;;;
2019/11/20 13:26:55;;;;;;;21.9;18.5;;;;;;;8.15;71.26172;932.913;;;;
2019/11/20 13:29:35;;;;;;;22;18.4;;;;;;;8.31;70.35742;932.9744;;;;
2019/11/20 13:32:03;;;;;;;23.1;18.8;;;;;;;8.01;70.7168;932.9402;;;;
2019/11/20 13:34:32;;;;;;;21.9;18.1;;;;;;;7.88;71.80859;932.9623;;;;
2019/11/20 13:36:57;;;;;;;23.2;18.6;;;;;;;8;71.02051;932.9373;;;;
2019/11/20 13:39:29;;;;;;;23;18.3;;;;;;;8.07;71.16895;932.9821;;;;
2019/11/20 13:42:02;;;;;;;22.4;17.4;;;;;;;7.84;71.39258;932.9406;;;;
2019/11/20 13:44:35;;;;;;;23.3;18;;;;;;;7.87;71.56641;933.0098;;;;
2019/11/20 13:47:24;;;;;;;24.9;18.6;;;;;;;7.89;71.57129;933.014;;;;
2019/11/20 13:49:53;;;;;;;23.7;17.8;;;;;;;7.92;72.3916;932.9381;;;;
2019/11/20 13:52:24;;;;;;;19.6;15.7;;;;;;;7.95;71.43262;933.009;;;;
2019/11/20 13:54:56;;;;;;;19.4;16;;;;;;;8.07;70.75;932.9647;;;;
2019/11/20 13:57:24;;;;;;;23.1;18.2;;;;;;;8.07;71.36133;932.9511;;;;
2019/11/20 13:59:52;;;;;;;27.3;19.9;;;;;;;7.93;71.89551;932.9018;;;;
2019/11/20 14:02:23;;;;;;;25.6;19.5;;;;;;;7.88;72.58984;932.8965;;;;
2019/11/20 14:04:55;;;;;;;27.7;20.9;;;;;;;7.79;72.54199;932.8708;;;;
2019/11/20 14:07:22;;;;;;;25.7;20.6;;;;;;;7.75;72.7041;932.9052;;;;
2019/11/20 14:09:52;;;;;;;24.3;20.5;;;;;;;7.96;71.67285;932.8117;;;;
2019/11/20 14:12:13;;;;;;;25.5;19.4;;;;;;;8.06;71.20117;932.8758;;;;
2019/11/20 14:14:40;;;;;;;24.1;18.7;;;;;;;7.99;70.88281;932.877;;;;
2019/11/20 14:17:16;;;;;;;25.5;20.7;;;;;;;7.91;71.12988;932.8904;;;;
2019/11/20 14:20:15;;;;;;;23.8;19.8;;;;;;;7.97;71.44727;932.9031;;;;
2019/11/20 14:22:33;;;;;;;24.3;19.4;;;;;;;8.09;70.47949;932.926;;;;
2019/11/20 14:25:10;;;;;;;20.5;16.5;;;;;;;7.93;71.58887;932.8217;;;;
2019/11/20 14:30:08;;;;;;;22.5;18.1;;;;;;;7.58;72.73242;932.929;;;;
2019/11/20 14:32:39;;;;;;;24;19.1;;;;;;;7.62;72.69336;932.9282;;;;
2019/11/20 14:35:11;;;;;;;23.8;19;;;;;;;7.71;71.85742;932.8992;;;;
2019/11/20 14:37:43;;;;;;;22.6;18.9;;;;;;;7.77;71.49512;932.9545;;;;
2019/11/20 14:40:26;;;;;;;23.6;18.4;;;;;;;7.64;71.55176;932.9673;;;;
2019/11/20 14:42:56;;;;;;;23.6;18.4;;;;;;;7.32;73.53809;932.9263;;;;
2019/11/20 14:45:28;;;;;;;24.9;19.9;;;;;;;7.02;74.3584;932.9593;;;;
2019/11/20 14:47:54;;;;;;;30.1;18.9;;;;;;;7.03;74.67773;932.9539;;;;
2019/11/20 14:50:25;;;;;;;31.2;19.4;;;;;;;7.13;74.77441;932.9434;;;;
2019/11/20 14:52:59;;;;;;;30;19.2;;;;;;;7.28;74.88965;932.9441;;;;
2019/11/20 14:55:39;;;;;;;25.9;20.2;;;;;;;7.49;73.85059;932.8875;;;;
2019/11/20 14:58:04;;;;;;;28.1;20.3;;;;;;;7.45;73.85547;932.8768;;;;